Time;durP1;ratioP1;P1;durP2;ratioP2;P2;SDS_P1;SDS_P2;PMS_P1;PMS_P2;Temp;Humidity;BMP_temperature;BMP_pressure;BME280_temperature;BME280_humidity;BME280_pressure;Samples;Min_cycle;Max_cycle;Signal;HPM_P1;HPM_P2
2023/01/19 00:00:11;;;;;;;5.57;2.35;;;-0.50;99.90;;;;;;4938560;29;20412;-94
2023/01/19 00:02:37;;;;;;;7.40;1.77;;;-0.50;99.90;;;;;;4939121;29;20042;-94
2023/01/19 00:05:04;;;;;;;6.97;2.13;;;-0.50;99.90;;;;;;4936955;29;20467;-93
2023/01/19 00:07:30;;;;;;;9.70;2.67;;;-0.50;99.90;;;;;;4937009;29;20078;-94
2023/01/19 00:09:57;;;;;;;7.70;1.85;;;-0.50;99.90;;;;;;4936984;29;20027;-94
2023/01/19 00:12:22;;;;;;;8.32;1.40;;;-0.50;99.90;;;;;;4936406;29;20027;-94
2023/01/19 00:14:48;;;;;;;6.05;2.17;;;-0.50;99.90;;;;;;4936531;29;20086;-95
2023/01/19 00:17:13;;;;;;;6.35;1.95;;;-0.50;99.90;;;;;;4938112;29;20039;-93
2023/01/19 00:19:39;;;;;;;7.05;2.08;;;-0.60;99.90;;;;;;4938198;29;20535;-94
2023/01/19 00:22:05;;;;;;;9.20;2.92;;;-0.50;99.90;;;;;;4945303;29;20042;-94
2023/01/19 00:24:31;;;;;;;6.90;2.38;;;-0.60;99.90;;;;;;4943684;29;20170;-94
2023/01/19 00:26:57;;;;;;;10.20;3.10;;;-0.60;99.90;;;;;;4938432;29;20485;-93
2023/01/19 00:29:23;;;;;;;8.68;1.70;;;-0.60;99.90;;;;;;4937133;29;20031;-93
2023/01/19 00:31:49;;;;;;;7.70;2.13;;;-0.60;99.90;;;;;;4937788;29;20028;-93
2023/01/19 00:34:15;;;;;;;11.93;2.17;;;-0.60;99.90;;;;;;4938056;29;20020;-94
2023/01/19 00:36:41;;;;;;;6.85;2.03;;;-0.60;99.90;;;;;;4938627;29;20503;-93
2023/01/19 00:39:07;;;;;;;5.60;2.00;;;-0.60;99.90;;;;;;4938617;29;20027;-93
2023/01/19 00:44:17;;;;;;;6.55;2.08;;;-0.70;99.90;;;;;;4962247;28;20078;-93
2023/01/19 00:46:42;;;;;;;7.45;2.10;;;-0.60;99.90;;;;;;4944125;29;20260;-93
2023/01/19 00:49:08;;;;;;;6.97;1.80;;;-0.60;99.90;;;;;;4941987;29;20023;-93
2023/01/19 00:51:34;;;;;;;5.63;1.63;;;-0.60;99.90;;;;;;4941817;29;20027;-94
2023/01/19 00:54:03;;;;;;;7.45;1.95;;;-0.60;99.90;;;;;;4948558;29;20031;-94
2023/01/19 00:56:30;;;;;;;7.40;1.80;;;-0.60;99.90;;;;;;4942942;29;20117;-93
2023/01/19 00:58:55;;;;;;;6.25;2.03;;;-0.60;99.90;;;;;;4962215;29;20031;-92
2023/01/19 01:01:21;;;;;;;5.65;1.88;;;-0.70;99.90;;;;;;4941632;29;20122;-94
2023/01/19 01:03:47;;;;;;;5.22;1.60;;;-0.60;99.90;;;;;;4941147;29;20031;-94
2023/01/19 01:06:13;;;;;;;6.85;1.80;;;-0.60;99.90;;;;;;4940133;29;20091;-94
2023/01/19 01:08:38;;;;;;;7.97;1.75;;;-0.70;99.90;;;;;;4940687;29;20428;-93
2023/01/19 01:11:04;;;;;;;7.40;1.83;;;-0.70;99.90;;;;;;4940725;29;20024;-94
2023/01/19 01:13:30;;;;;;;6.38;2.05;;;-0.70;99.90;;;;;;4946486;29;20564;-94
2023/01/19 01:15:56;;;;;;;5.13;1.77;;;-0.70;99.90;;;;;;4957043;29;20039;-93
2023/01/19 01:18:25;;;;;;;7.88;1.98;;;-0.70;99.90;;;;;;4953534;29;20057;-94
2023/01/19 01:20:51;;;;;;;8.60;2.08;;;-0.70;99.90;;;;;;4946570;29;20040;-95
2023/01/19 01:23:21;;;;;;;9.52;2.25;;;-0.70;99.90;;;;;;4952770;29;20059;-95
2023/01/19 01:25:47;;;;;;;6.05;1.75;;;-0.80;99.90;;;;;;4953904;29;20493;-93
2023/01/19 01:28:13;;;;;;;4.65;1.77;;;-0.80;99.90;;;;;;4966763;29;20047;-94
2023/01/19 01:30:39;;;;;;;5.90;3.15;;;-0.80;99.90;;;;;;4950661;29;20031;-94
2023/01/19 01:33:07;;;;;;;5.10;2.25;;;-0.80;99.90;;;;;;4965291;29;20062;-94
2023/01/19 01:35:32;;;;;;;11.82;2.03;;;-0.90;99.90;;;;;;4944537;29;20039;-93
2023/01/19 01:37:59;;;;;;;12.48;2.58;;;-0.90;99.90;;;;;;4943775;29;20033;-94
2023/01/19 01:40:25;;;;;;;8.23;2.40;;;-0.90;99.90;;;;;;4942753;29;20039;-94
2023/01/19 01:42:51;;;;;;;4.65;1.80;;;-0.90;99.90;;;;;;4942695;29;20034;-93
2023/01/19 01:45:37;;;;;;;7.65;2.80;;;-1.00;99.90;;;;;;4943743;29;20512;-94
2023/01/19 01:48:14;;;;;;;10.07;2.17;;;-1.00;99.90;;;;;;4941895;29;20059;-90
2023/01/19 01:53:36;;;;;;;10.60;2.42;;;-1.10;99.90;;;;;;4958110;29;20046;-93
2023/01/19 01:56:06;;;;;;;3.58;1.77;;;-1.10;99.90;;;;;;4940937;29;20023;-95
2023/01/19 01:58:33;;;;;;;12.60;3.88;;;-1.20;99.90;;;;;;4942642;29;20035;-93
2023/01/19 02:03:45;;;;;;;6.90;1.77;;;-1.20;99.90;;;;;;4965759;29;20067;-94
2023/01/19 02:06:14;;;;;;;13.68;3.70;;;-1.20;99.90;;;;;;4946447;29;20039;-94
2023/01/19 02:14:20;;;;;;;8.95;3.97;;;-1.20;99.90;;;;;;4960913;29;20089;-95
2023/01/19 02:16:47;;;;;;;5.18;2.15;;;-1.20;99.90;;;;;;4946306;29;20078;-92
2023/01/19 02:19:20;;;;;;;6.43;2.15;;;-1.20;99.90;;;;;;4962003;29;20046;-94
2023/01/19 02:22:18;;;;;;;6.65;3.05;;;-1.20;99.90;;;;;;4956022;29;20043;-93
2023/01/19 02:24:43;;;;;;;8.30;3.50;;;-1.20;99.90;;;;;;4937534;29;20043;-94
2023/01/19 02:27:11;;;;;;;10.73;4.68;;;-1.20;99.90;;;;;;4940404;28;20125;-95
2023/01/19 02:29:37;;;;;;;6.20;2.28;;;-1.20;99.90;;;;;;4940593;29;20031;-93
2023/01/19 02:32:04;;;;;;;8.48;2.72;;;-1.20;99.90;;;;;;4940650;29;20188;-93
2023/01/19 02:34:31;;;;;;;6.38;3.35;;;-1.20;99.90;;;;;;4956505;29;20059;-93
2023/01/19 02:37:05;;;;;;;9.80;4.10;;;-1.20;99.90;;;;;;4939658;29;20058;-93
2023/01/19 02:39:37;;;;;;;6.80;3.10;;;-1.20;99.90;;;;;;4944650;29;20031;-94
2023/01/19 02:42:07;;;;;;;7.88;2.70;;;-1.20;99.90;;;;;;4944680;29;20039;-91
2023/01/19 02:44:35;;;;;;;11.85;3.22;;;-1.20;99.90;;;;;;4961690;29;20028;-94
2023/01/19 02:47:02;;;;;;;8.88;2.97;;;-1.20;99.90;;;;;;4946028;29;20031;-93
2023/01/19 02:49:29;;;;;;;8.70;2.88;;;-1.20;99.90;;;;;;4945930;29;20031;-92
2023/01/19 02:51:55;;;;;;;8.50;3.17;;;-1.20;99.90;;;;;;4949509;29;20121;-92
2023/01/19 02:54:49;;;;;;;8.88;2.88;;;-1.20;99.90;;;;;;4961093;28;20055;-92
2023/01/19 02:57:30;;;;;;;7.93;2.92;;;-1.20;99.90;;;;;;4956606;28;20234;-90
2023/01/19 03:00:21;;;;;;;22.23;5.10;;;-1.20;99.90;;;;;;4962177;28;20039;-92
2023/01/19 03:02:51;;;;;;;5.70;2.58;;;-1.20;99.90;;;;;;4961977;28;20122;-92
2023/01/19 03:05:41;;;;;;;8.45;3.05;;;-1.20;99.90;;;;;;4961337;28;20051;-91
2023/01/19 03:08:25;;;;;;;7.40;2.65;;;-1.20;99.90;;;;;;4945681;29;20034;-92
2023/01/19 03:11:02;;;;;;;4.13;2.38;;;-1.20;99.90;;;;;;4945492;29;20031;-92
2023/01/19 03:13:55;;;;;;;8.38;2.50;;;-1.20;99.90;;;;;;4942408;29;20027;-93
2023/01/19 03:16:28;;;;;;;6.28;2.40;;;-1.20;99.90;;;;;;4958330;29;20027;-92
2023/01/19 03:19:04;;;;;;;7.47;2.10;;;-1.20;99.90;;;;;;4940540;29;20437;-92
2023/01/19 03:21:34;;;;;;;6.72;2.65;;;-1.20;99.90;;;;;;4940916;29;20047;-93
2023/01/19 03:24:03;;;;;;;5.90;2.67;;;-1.20;99.90;;;;;;4940182;29;20477;-92
2023/01/19 03:26:33;;;;;;;8.02;2.83;;;-1.20;99.90;;;;;;4940726;29;20051;-94
2023/01/19 03:29:02;;;;;;;7.45;2.88;;;-1.10;99.90;;;;;;4939857;29;20039;-93
2023/01/19 03:31:31;;;;;;;9.82;2.97;;;-1.10;99.90;;;;;;4956470;29;20036;-93
2023/01/19 03:34:02;;;;;;;7.50;2.40;;;-1.10;99.90;;;;;;4939493;29;20028;-93
2023/01/19 03:36:38;;;;;;;8.40;2.50;;;-1.20;99.90;;;;;;4940028;29;20035;-94
2023/01/19 03:39:06;;;;;;;8.60;2.35;;;-1.20;99.90;;;;;;4940245;29;20113;-93
2023/01/19 03:41:33;;;;;;;4.72;2.40;;;-1.20;99.90;;;;;;4940502;29;20043;-93
2023/01/19 03:44:00;;;;;;;4.93;2.00;;;-1.20;99.90;;;;;;4940888;29;20027;-93
2023/01/19 03:46:26;;;;;;;5.45;2.20;;;-1.20;99.90;;;;;;4957473;29;20050;-94
2023/01/19 03:48:53;;;;;;;6.93;2.42;;;-1.30;99.90;;;;;;4942627;29;20030;-94
2023/01/19 03:51:21;;;;;;;3.65;1.77;;;-1.30;99.90;;;;;;4953615;29;20170;-92
2023/01/19 03:53:48;;;;;;;8.38;2.30;;;-1.20;99.90;;;;;;4949980;29;20034;-94
2023/01/19 03:56:20;;;;;;;4.15;1.98;;;-1.30;99.90;;;;;;4941724;29;20121;-92
2023/01/19 03:58:46;;;;;;;7.47;2.15;;;-1.30;99.90;;;;;;4941226;29;20050;-93
2023/01/19 04:01:13;;;;;;;6.70;2.42;;;-1.30;99.90;;;;;;4940856;29;20118;-94
2023/01/19 04:03:40;;;;;;;7.65;2.05;;;-1.40;99.90;;;;;;4957793;29;20047;-94
2023/01/19 04:06:06;;;;;;;7.18;2.10;;;-1.40;99.90;;;;;;4943371;29;20035;-93
2023/01/19 04:08:32;;;;;;;9.90;2.30;;;-1.30;99.90;;;;;;4966147;29;20035;-93
2023/01/19 04:10:58;;;;;;;9.30;2.13;;;-1.40;99.90;;;;;;4949361;29;20065;-93
2023/01/19 04:13:25;;;;;;;7.25;2.15;;;-1.40;99.90;;;;;;4945184;29;20035;-94
2023/01/19 04:15:51;;;;;;;5.05;1.90;;;-1.40;99.90;;;;;;4944215;29;20031;-94
2023/01/19 04:18:17;;;;;;;5.20;2.33;;;-1.30;99.90;;;;;;4942722;29;20031;-94
2023/01/19 04:20:42;;;;;;;6.88;2.63;;;-1.30;99.90;;;;;;4945503;29;20107;-93
2023/01/19 04:23:08;;;;;;;5.43;2.15;;;-1.30;99.90;;;;;;4945919;29;20058;-94
2023/01/19 04:25:34;;;;;;;9.30;4.30;;;-1.30;99.90;;;;;;4946232;29;20042;-93
2023/01/19 04:27:59;;;;;;;6.72;2.65;;;-1.20;99.90;;;;;;4950550;29;20055;-94
2023/01/19 04:30:26;;;;;;;11.73;4.85;;;-1.20;99.90;;;;;;4949112;29;20027;-93
2023/01/19 04:32:54;;;;;;;27.13;11.93;;;-1.20;99.90;;;;;;4943566;29;20027;-93
2023/01/19 04:35:21;;;;;;;9.07;5.10;;;-1.10;99.90;;;;;;4944651;29;20031;-93
2023/01/19 04:37:47;;;;;;;20.90;11.25;;;-1.10;99.90;;;;;;4946407;29;20051;-93
2023/01/19 04:40:14;;;;;;;22.02;9.10;;;-1.10;99.90;;;;;;4947691;29;20078;-93
2023/01/19 04:42:44;;;;;;;14.00;8.30;;;-1.00;99.90;;;;;;4946166;29;20050;-93
2023/01/19 04:45:11;;;;;;;12.63;6.30;;;-0.90;99.90;;;;;;4945478;29;20027;-94
2023/01/19 04:47:37;;;;;;;28.10;10.75;;;-0.80;99.90;;;;;;4945486;29;20055;-93
2023/01/19 04:50:04;;;;;;;22.92;11.50;;;-0.80;99.90;;;;;;4947367;29;20027;-93
2023/01/19 04:52:34;;;;;;;27.38;12.95;;;-0.70;99.90;;;;;;4946565;29;20023;-93
2023/01/19 04:55:04;;;;;;;21.67;11.93;;;-0.60;99.90;;;;;;4946518;29;20066;-92
2023/01/19 04:57:30;;;;;;;26.92;14.20;;;-0.60;99.90;;;;;;4943050;29;20035;-93
2023/01/19 04:59:57;;;;;;;25.58;13.73;;;-0.50;99.90;;;;;;4941652;29;20039;-93
2023/01/19 05:02:23;;;;;;;29.83;15.30;;;-0.50;99.90;;;;;;4941474;29;20035;-96
2023/01/19 05:04:49;;;;;;;34.15;14.95;;;-0.50;99.90;;;;;;4941335;29;20031;-93
2023/01/19 05:07:15;;;;;;;25.08;12.55;;;-0.50;99.90;;;;;;4941166;29;20031;-93
2023/01/19 05:09:40;;;;;;;21.77;9.65;;;-0.50;99.90;;;;;;4942169;29;20662;-95
2023/01/19 05:12:07;;;;;;;16.23;8.70;;;-0.50;99.90;;;;;;4942787;29;20113;-94
2023/01/19 05:14:33;;;;;;;23.63;11.40;;;-0.40;99.90;;;;;;4941077;29;20038;-95
2023/01/19 05:16:59;;;;;;;23.80;9.43;;;-0.40;99.90;;;;;;4941159;29;20118;-93
2023/01/19 05:19:25;;;;;;;22.42;10.85;;;-0.40;99.90;;;;;;4941868;29;20082;-95
2023/01/19 05:21:50;;;;;;;25.75;10.48;;;-0.40;99.90;;;;;;4940225;29;20027;-92
2023/01/19 05:24:17;;;;;;;16.63;9.07;;;-0.30;99.90;;;;;;4940450;29;20031;-91
2023/01/19 05:26:42;;;;;;;23.75;12.93;;;-0.30;99.90;;;;;;4940780;29;20051;-94
2023/01/19 05:29:09;;;;;;;28.80;12.27;;;-0.40;99.90;;;;;;4940070;28;20030;-93
2023/01/19 05:31:35;;;;;;;19.98;9.57;;;-0.30;99.90;;;;;;4940581;29;20081;-93
2023/01/19 05:34:01;;;;;;;15.68;9.50;;;-0.20;99.90;;;;;;4925182;29;20040;-94
2023/01/19 05:36:27;;;;;;;38.83;16.08;;;-0.20;99.90;;;;;;4941326;29;20466;-93
2023/01/19 05:38:53;;;;;;;26.13;13.45;;;-0.20;99.90;;;;;;4940951;29;20035;-94
2023/01/19 05:41:19;;;;;;;22.30;11.68;;;-0.20;99.90;;;;;;4941207;29;20043;-93
2023/01/19 05:43:44;;;;;;;19.08;9.50;;;-0.10;99.90;;;;;;4940412;29;20543;-93
2023/01/19 05:46:10;;;;;;;17.63;8.15;;;0.00;99.90;;;;;;4943009;29;20027;-95
2023/01/19 05:48:36;;;;;;;17.00;7.70;;;0.00;99.90;;;;;;4944355;29;20027;-94
2023/01/19 05:51:03;;;;;;;17.92;7.85;;;0.10;99.90;;;;;;4943284;29;20122;-93
2023/01/19 05:53:29;;;;;;;22.45;7.90;;;0.10;99.90;;;;;;4941973;29;20682;-93
2023/01/19 05:56:03;;;;;;;15.10;9.40;;;0.20;99.90;;;;;;4942339;29;20035;-94
2023/01/19 05:58:28;;;;;;;17.60;9.25;;;0.20;99.90;;;;;;4941602;29;20195;-92
2023/01/19 06:00:54;;;;;;;16.88;8.35;;;0.20;99.90;;;;;;4956204;29;20039;-93
2023/01/19 06:03:20;;;;;;;15.32;9.30;;;0.20;99.90;;;;;;4941916;29;20059;-93
2023/01/19 06:05:45;;;;;;;17.73;8.65;;;0.20;99.90;;;;;;4951075;29;20342;-92
2023/01/19 06:08:11;;;;;;;17.70;8.55;;;0.20;99.90;;;;;;4944212;29;20469;-95
2023/01/19 06:10:37;;;;;;;16.88;7.40;;;0.20;99.90;;;;;;4942398;29;20066;-94
2023/01/19 06:13:02;;;;;;;11.05;6.28;;;0.10;99.90;;;;;;4941487;29;20027;-92
2023/01/19 06:15:28;;;;;;;12.77;5.10;;;0.10;99.90;;;;;;4956094;29;20043;-91
2023/01/19 06:17:54;;;;;;;8.73;5.50;;;0.10;99.90;;;;;;4940865;29;20031;-93
2023/01/19 06:20:19;;;;;;;9.82;4.05;;;0.10;99.90;;;;;;4941244;29;20031;-94
2023/01/19 06:22:55;;;;;;;11.32;4.28;;;0.00;99.90;;;;;;4941001;29;20023;-94
2023/01/19 06:25:20;;;;;;;6.30;3.28;;;0.00;99.90;;;;;;4940472;29;20031;-94
2023/01/19 06:27:46;;;;;;;4.07;2.97;;;0.00;99.90;;;;;;4941414;29;20043;-94
2023/01/19 06:30:12;;;;;;;8.35;2.72;;;-0.10;99.90;;;;;;4960575;29;20035;-94
2023/01/19 06:32:38;;;;;;;4.93;2.30;;;-0.10;99.90;;;;;;4943233;29;20063;-93
2023/01/19 06:35:06;;;;;;;3.40;2.17;;;-0.10;99.90;;;;;;4939393;29;20066;-92
2023/01/19 06:37:32;;;;;;;6.63;2.40;;;-0.10;99.90;;;;;;4939010;29;20031;-94
2023/01/19 06:39:57;;;;;;;4.10;1.95;;;-0.10;99.90;;;;;;4939872;29;20031;-93
2023/01/19 06:42:23;;;;;;;3.13;2.28;;;-0.10;99.90;;;;;;4942700;29;20039;-94
2023/01/19 06:44:49;;;;;;;6.00;2.33;;;-0.10;99.90;;;;;;4960215;29;20037;-95
2023/01/19 06:47:15;;;;;;;3.25;2.10;;;-0.10;99.90;;;;;;4940085;29;20110;-93
2023/01/19 06:49:41;;;;;;;4.32;2.08;;;-0.10;99.90;;;;;;4938582;29;20031;-95
2023/01/19 06:52:15;;;;;;;7.60;2.60;;;-0.10;99.90;;;;;;4955397;29;20020;-94
2023/01/19 06:54:42;;;;;;;4.85;2.63;;;-0.10;99.90;;;;;;4937861;29;20027;-94
2023/01/19 06:57:10;;;;;;;4.68;1.85;;;-0.10;99.90;;;;;;4941766;29;20020;-94
2023/01/19 06:59:37;;;;;;;3.30;1.80;;;-0.10;99.90;;;;;;4940909;29;20039;-92
2023/01/19 07:02:03;;;;;;;10.52;3.13;;;-0.10;99.90;;;;;;4945722;29;20050;-93
2023/01/19 07:04:28;;;;;;;10.35;3.08;;;-0.10;99.90;;;;;;4944594;29;20031;-92
2023/01/19 07:06:54;;;;;;;5.13;2.05;;;-0.10;99.90;;;;;;4944656;29;20030;-94
2023/01/19 07:09:20;;;;;;;2.70;2.42;;;-0.10;99.90;;;;;;4943137;29;20032;-92
2023/01/19 07:11:47;;;;;;;3.88;2.55;;;0.00;99.90;;;;;;4940615;29;20027;-92
2023/01/19 07:14:13;;;;;;;4.32;2.25;;;0.00;99.90;;;;;;4941644;29;20462;-93
2023/01/19 07:16:39;;;;;;;4.25;2.38;;;0.00;99.90;;;;;;4943102;29;20031;-93
2023/01/19 07:19:04;;;;;;;8.88;3.53;;;-0.10;99.90;;;;;;4943367;29;20122;-92
2023/01/19 07:21:30;;;;;;;17.30;9.20;;;0.00;99.90;;;;;;4938468;29;20042;-94
2023/01/19 07:23:56;;;;;;;9.02;4.47;;;0.00;99.90;;;;;;4939048;29;20034;-92
2023/01/19 07:26:24;;;;;;;2.90;1.98;;;0.00;99.90;;;;;;4939956;29;20527;-94
2023/01/19 07:28:50;;;;;;;3.17;2.53;;;0.00;99.90;;;;;;4944017;29;20485;-93
2023/01/19 07:31:17;;;;;;;5.93;3.20;;;-0.10;99.90;;;;;;4942262;29;20078;-93
2023/01/19 07:33:46;;;;;;;5.40;3.13;;;-0.10;99.90;;;;;;4943450;29;20032;-93
2023/01/19 07:36:12;;;;;;;4.03;2.47;;;-0.10;99.90;;;;;;4941092;29;20028;-93
2023/01/19 07:38:38;;;;;;;4.18;2.38;;;-0.10;99.90;;;;;;4941357;29;20477;-93
2023/01/19 07:41:06;;;;;;;5.10;3.00;;;-0.10;99.90;;;;;;4945077;29;20043;-92
2023/01/19 07:43:32;;;;;;;6.15;2.78;;;-0.10;99.90;;;;;;4942145;29;20035;-93
2023/01/19 07:46:00;;;;;;;4.95;2.75;;;-0.10;99.90;;;;;;4940577;29;20031;-93
2023/01/19 07:48:26;;;;;;;6.72;3.72;;;-0.10;99.90;;;;;;4940186;29;20035;-93
2023/01/19 07:50:57;;;;;;;6.05;3.70;;;-0.10;99.90;;;;;;4940631;29;20108;-91
2023/01/19 07:53:23;;;;;;;6.85;3.05;;;-0.10;99.90;;;;;;4940347;29;20283;-92
2023/01/19 07:55:53;;;;;;;7.03;3.00;;;-0.10;99.90;;;;;;4942025;29;20132;-94
2023/01/19 07:58:19;;;;;;;4.38;3.13;;;-0.10;99.90;;;;;;4941875;29;20027;-92
2023/01/19 08:00:45;;;;;;;7.95;3.83;;;-0.10;99.90;;;;;;4941810;29;20062;-92
2023/01/19 08:03:13;;;;;;;7.47;3.63;;;0.00;99.90;;;;;;4941506;29;20445;-91
2023/01/19 08:05:38;;;;;;;9.43;3.83;;;0.00;99.90;;;;;;4942098;29;20126;-91
2023/01/19 08:08:04;;;;;;;10.07;4.95;;;0.00;99.90;;;;;;4943267;29;20050;-92
2023/01/19 08:10:33;;;;;;;7.18;4.25;;;0.00;99.90;;;;;;4944710;29;20035;-92
2023/01/19 08:13:07;;;;;;;5.47;3.45;;;0.00;99.90;;;;;;4942007;29;20038;-92
2023/01/19 08:15:32;;;;;;;6.18;3.22;;;0.00;99.90;;;;;;4958791;29;20031;-93
2023/01/19 08:18:03;;;;;;;6.57;3.50;;;0.00;99.90;;;;;;4944934;29;20055;-93
2023/01/19 08:20:31;;;;;;;6.35;3.83;;;0.00;99.90;;;;;;4953312;29;20039;-91
2023/01/19 08:23:01;;;;;;;7.53;3.42;;;0.00;99.90;;;;;;4948281;29;20433;-94
2023/01/19 08:25:44;;;;;;;6.38;3.58;;;0.00;99.90;;;;;;4944158;29;20023;-93
2023/01/19 08:28:11;;;;;;;6.75;3.53;;;0.00;99.90;;;;;;4941564;29;20043;-94
2023/01/19 08:30:38;;;;;;;7.72;4.07;;;0.00;99.90;;;;;;4943755;29;20094;-91
2023/01/19 08:33:06;;;;;;;10.05;4.55;;;0.10;99.90;;;;;;4945469;29;20027;-93
2023/01/19 08:35:46;;;;;;;12.50;4.30;;;0.10;99.90;;;;;;4946312;29;20034;-93
2023/01/19 08:38:15;;;;;;;18.52;8.13;;;0.10;99.90;;;;;;4929966;29;20095;-95
2023/01/19 08:40:42;;;;;;;30.40;6.55;;;0.10;99.90;;;;;;4946984;29;20040;-92
2023/01/19 08:43:10;;;;;;;10.95;5.35;;;0.10;99.90;;;;;;4945450;29;20083;-92
2023/01/19 08:45:41;;;;;;;11.60;4.90;;;0.20;99.90;;;;;;4945905;29;20118;-93
2023/01/19 08:48:07;;;;;;;9.32;4.88;;;0.10;99.90;;;;;;4947561;29;20038;-93
2023/01/19 08:50:33;;;;;;;10.90;5.50;;;0.20;99.90;;;;;;4946567;29;20114;-93
2023/01/19 08:53:01;;;;;;;11.05;5.35;;;0.20;99.90;;;;;;4951483;29;20027;-95
2023/01/19 08:55:28;;;;;;;9.82;5.30;;;0.20;99.90;;;;;;4943529;29;20107;-94
2023/01/19 08:57:56;;;;;;;10.48;5.10;;;0.20;99.90;;;;;;4942609;29;20026;-93
2023/01/19 09:00:23;;;;;;;14.65;7.60;;;0.30;99.90;;;;;;4942109;29;20015;-93
2023/01/19 09:02:49;;;;;;;19.48;6.43;;;0.30;99.90;;;;;;4942080;29;20094;-93
2023/01/19 09:05:16;;;;;;;16.23;6.55;;;0.30;99.90;;;;;;4941260;29;20062;-93
2023/01/19 09:07:44;;;;;;;15.93;6.60;;;0.30;99.90;;;;;;4942009;29;20039;-93
2023/01/19 09:10:10;;;;;;;11.98;5.13;;;0.40;99.90;;;;;;4941899;29;20039;-93
2023/01/19 09:12:38;;;;;;;9.43;4.63;;;0.40;99.90;;;;;;4941042;29;20027;-94
2023/01/19 09:15:05;;;;;;;15.23;6.60;;;0.40;99.90;;;;;;4939315;29;20023;-93
2023/01/19 09:17:33;;;;;;;7.70;4.57;;;0.40;99.90;;;;;;4942303;29;20027;-94
2023/01/19 09:19:59;;;;;;;12.27;6.10;;;0.40;99.90;;;;;;4963878;29;20048;-94
2023/01/19 09:22:25;;;;;;;16.17;6.03;;;0.40;99.90;;;;;;4944545;29;20082;-93
2023/01/19 09:24:51;;;;;;;10.93;4.85;;;0.50;99.90;;;;;;4941555;29;20035;-92
2023/01/19 09:27:17;;;;;;;11.85;5.78;;;0.50;99.90;;;;;;4941190;29;20134;-92
2023/01/19 09:29:51;;;;;;;12.93;5.20;;;0.50;99.90;;;;;;4940235;29;20097;-94
2023/01/19 09:32:17;;;;;;;10.50;5.55;;;0.50;99.90;;;;;;4938730;29;20830;-92
2023/01/19 09:34:43;;;;;;;8.73;5.20;;;0.60;99.90;;;;;;4940910;29;20474;-94
2023/01/19 09:37:09;;;;;;;19.30;6.15;;;0.60;99.90;;;;;;4941027;29;20019;-93
2023/01/19 09:39:34;;;;;;;12.98;5.63;;;0.70;99.90;;;;;;4941488;29;20028;-94
2023/01/19 09:42:25;;;;;;;13.95;5.57;;;0.70;99.90;;;;;;4947669;29;20094;-94
2023/01/19 09:44:52;;;;;;;13.30;4.72;;;0.70;99.90;;;;;;4934418;29;20033;-92
2023/01/19 09:47:23;;;;;;;10.80;4.65;;;0.80;99.90;;;;;;4946276;29;20340;-93
2023/01/19 09:49:57;;;;;;;12.48;4.85;;;0.90;99.90;;;;;;4941848;29;20043;-94
2023/01/19 09:52:23;;;;;;;13.65;5.22;;;0.90;99.90;;;;;;4942476;29;20019;-94
2023/01/19 09:54:53;;;;;;;16.90;5.15;;;0.90;99.90;;;;;;4941650;29;20028;-93
2023/01/19 09:57:21;;;;;;;10.38;4.93;;;1.00;99.90;;;;;;4941604;29;20027;-94
2023/01/19 09:59:49;;;;;;;13.15;5.55;;;1.00;99.90;;;;;;4938824;29;20042;-94
2023/01/19 10:02:21;;;;;;;13.82;5.55;;;1.10;99.90;;;;;;4940993;29;20028;-93
2023/01/19 10:05:03;;;;;;;12.48;5.47;;;1.10;99.90;;;;;;4944067;29;20125;-93
2023/01/19 10:07:52;;;;;;;12.85;5.32;;;1.20;99.90;;;;;;4941510;29;20043;-93
2023/01/19 10:10:29;;;;;;;13.77;5.55;;;1.40;99.90;;;;;;4941932;29;20019;-96
2023/01/19 10:13:16;;;;;;;9.88;5.05;;;1.70;99.90;;;;;;4939227;29;20035;-96
2023/01/19 10:15:51;;;;;;;14.75;5.82;;;2.00;99.90;;;;;;4939083;29;20095;-95
2023/01/19 10:18:33;;;;;;;10.15;5.03;;;2.40;99.90;;;;;;4940787;29;20046;-91
2023/01/19 10:21:11;;;;;;;9.32;4.50;;;2.70;99.90;;;;;;4945689;29;20107;-91
2023/01/19 10:23:49;;;;;;;8.90;4.13;;;3.00;99.90;;;;;;4958950;29;20043;-93
2023/01/19 10:26:37;;;;;;;8.88;4.10;;;3.40;99.90;;;;;;4951946;29;20019;-93
2023/01/19 10:29:17;;;;;;;7.60;4.25;;;3.80;99.90;;;;;;4953294;29;20094;-93
2023/01/19 10:31:43;;;;;;;5.38;3.42;;;4.10;99.90;;;;;;4957073;29;20713;-93
2023/01/19 10:34:17;;;;;;;7.75;3.35;;;4.60;99.90;;;;;;4945997;29;20142;-92
2023/01/19 10:36:45;;;;;;;5.75;3.25;;;5.00;99.90;;;;;;4940352;29;20031;-93
2023/01/19 10:39:21;;;;;;;4.63;2.67;;;5.30;99.90;;;;;;5048018;27;20469;-93
2023/01/19 10:41:50;;;;;;;4.97;2.83;;;5.80;99.90;;;;;;5046232;27;20029;-93
2023/01/19 10:44:27;;;;;;;4.95;1.80;;;6.00;99.90;;;;;;5042845;28;20026;-92
2023/01/19 10:46:55;;;;;;;5.72;1.98;;;6.00;99.90;;;;;;5045375;28;20045;-94
2023/01/19 10:49:37;;;;;;;7.03;1.92;;;5.90;99.90;;;;;;5045026;27;20018;-94
2023/01/19 10:52:06;;;;;;;3.22;1.70;;;5.90;99.90;;;;;;5041434;28;20028;-95
2023/01/19 10:54:35;;;;;;;3.63;1.80;;;6.00;99.90;;;;;;5045390;27;20021;-96
2023/01/19 10:57:08;;;;;;;4.78;1.85;;;6.30;99.90;;;;;;5048159;27;20035;-94
2023/01/19 10:59:34;;;;;;;6.13;2.90;;;6.60;99.90;;;;;;5042205;28;20034;-94
2023/01/19 11:02:19;;;;;;;6.53;2.80;;;6.60;99.90;;;;;;5048608;28;20026;-95
2023/01/19 11:04:48;;;;;;;5.13;3.05;;;6.50;99.90;;;;;;5055394;28;20096;-95
2023/01/19 11:07:26;;;;;;;4.63;2.72;;;6.40;99.90;;;;;;5054834;28;20078;-95
2023/01/19 11:10:20;;;;;;;5.95;2.70;;;6.50;99.90;;;;;;5061233;28;20081;-95
2023/01/19 11:13:11;;;;;;;6.55;2.95;;;6.60;99.90;;;;;;5058547;28;20021;-96
2023/01/19 11:15:54;;;;;;;8.70;3.05;;;6.60;99.90;;;;;;5056478;28;20044;-96
2023/01/19 11:18:35;;;;;;;3.65;2.58;;;6.70;99.90;;;;;;5057933;28;20501;-94
2023/01/19 11:21:11;;;;;;;9.93;2.08;;;6.80;99.90;;;;;;5058653;28;20486;-94
2023/01/19 11:23:49;;;;;;;4.20;2.10;;;7.20;99.90;;;;;;5057130;27;20046;-95
2023/01/19 11:26:40;;;;;;;9.27;2.85;;;7.40;99.90;;;;;;5068138;27;20017;-96
2023/01/19 11:29:14;;;;;;;;;;;7.60;99.90;;;;;;5046061;28;20015;-92
2023/01/19 11:31:40;;;;;;;4.53;1.85;;;7.90;99.90;;;;;;5040017;28;19918;-96
2023/01/19 11:34:23;;;;;;;4.78;1.75;;;8.10;99.90;;;;;;5042554;28;20402;-94
2023/01/19 11:36:58;;;;;;;6.30;2.70;;;8.20;99.90;;;;;;5049998;28;20030;-96
2023/01/19 11:39:27;;;;;;;5.20;1.83;;;8.20;99.90;;;;;;5061534;28;20056;-94
2023/01/19 11:42:01;;;;;;;4.80;2.00;;;8.30;99.90;;;;;;5049674;28;20027;-94
2023/01/19 11:44:34;;;;;;;8.27;2.28;;;8.40;99.90;;;;;;5053994;28;20029;-92
2023/01/19 11:47:03;;;;;;;5.78;2.63;;;8.60;99.90;;;;;;5045235;28;20533;-90
2023/01/19 11:49:37;;;;;;;5.88;2.95;;;8.60;99.60;;;;;;5041358;28;20045;-94
2023/01/19 11:52:05;;;;;;;6.00;2.17;;;8.60;98.90;;;;;;5036923;28;20034;-94
2023/01/19 11:54:38;;;;;;;4.50;2.55;;;8.60;97.80;;;;;;5035272;28;20033;-93
2023/01/19 11:57:16;;;;;;;7.57;2.38;;;8.60;97.30;;;;;;5035494;28;20037;-91
2023/01/19 11:59:42;;;;;;;5.97;2.13;;;8.60;96.30;;;;;;5052234;28;20055;-95
2023/01/19 12:02:42;;;;;;;6.40;2.30;;;8.80;96.60;;;;;;5039413;28;20069;-92
2023/01/19 12:05:13;;;;;;;5.05;2.30;;;9.00;95.70;;;;;;5034704;28;20025;-91
2023/01/19 12:07:44;;;;;;;7.28;2.50;;;8.70;94.40;;;;;;5035845;28;20050;-92
2023/01/19 12:10:25;;;;;;;;;;;8.50;94.40;;;;;;5045791;28;20122;-92
2023/01/19 12:12:52;;;;;;;8.02;3.22;;;8.40;94.60;;;;;;5033763;28;19925;-94
2023/01/19 12:15:33;;;;;;;5.13;2.33;;;8.50;95.00;;;;;;5034163;28;20028;-93
2023/01/19 12:18:01;;;;;;;5.20;2.35;;;8.80;95.60;;;;;;5060905;28;20030;-95
2023/01/19 12:20:36;;;;;;;3.70;2.10;;;9.10;95.00;;;;;;5031507;28;20097;-95
2023/01/19 12:23:17;;;;;;;5.68;2.10;;;9.30;94.50;;;;;;5031906;28;20033;-92
2023/01/19 12:25:57;;;;;;;4.15;2.00;;;9.40;93.80;;;;;;5033146;28;20034;-94
2023/01/19 12:28:30;;;;;;;4.70;1.92;;;9.30;93.40;;;;;;5019712;28;20479;-95
2023/01/19 12:30:58;;;;;;;3.88;1.65;;;9.10;93.00;;;;;;5015555;28;20018;-94
2023/01/19 12:33:37;;;;;;;10.68;2.45;;;8.70;93.00;;;;;;5024819;28;20178;-91
2023/01/19 12:36:29;;;;;;;7.00;2.17;;;8.40;93.30;;;;;;5024303;28;20093;-96
2023/01/19 12:39:04;;;;;;;3.17;1.85;;;8.50;94.00;;;;;;5044754;28;20107;-95
2023/01/19 12:41:38;;;;;;;4.50;1.83;;;8.60;93.90;;;;;;5029920;28;20025;-95
2023/01/19 12:44:10;;;;;;;5.60;2.33;;;8.70;93.70;;;;;;5030312;28;20043;-96
2023/01/19 12:46:50;;;;;;;6.22;2.17;;;8.80;93.50;;;;;;5031494;28;20108;-96
2023/01/19 12:49:43;;;;;;;9.13;3.17;;;9.00;93.40;;;;;;5028762;28;20066;-95
2023/01/19 12:52:20;;;;;;;6.70;2.97;;;9.00;92.90;;;;;;5028552;28;20021;-91
2023/01/19 12:55:00;;;;;;;6.57;3.08;;;8.80;92.50;;;;;;5036235;28;20022;-92
2023/01/19 12:57:31;;;;;;;4.38;2.58;;;8.60;92.60;;;;;;5036628;28;20101;-93
2023/01/19 13:00:05;;;;;;;5.00;3.00;;;8.50;92.80;;;;;;5034914;28;20097;-94
2023/01/19 13:02:43;;;;;;;8.30;3.17;;;8.50;92.90;;;;;;5030950;28;20026;-93
2023/01/19 13:05:19;;;;;;;11.02;3.88;;;8.80;93.10;;;;;;5032339;28;20063;-94
2023/01/19 13:08:04;;;;;;;10.73;3.75;;;9.10;92.60;;;;;;5027825;28;20051;-92
2023/01/19 13:11:01;;;;;;;8.55;3.75;;;9.30;91.60;;;;;;5030038;28;20224;-93
2023/01/19 13:13:35;;;;;;;10.23;3.33;;;9.80;91.30;;;;;;5030084;28;20023;-93
2023/01/19 13:16:20;;;;;;;7.47;3.45;;;10.10;90.30;;;;;;5028985;28;20037;-95